sensor_id;sensor_type;location;lat;lon;timestamp;P1;durP1;ratioP1;P2;durP2;ratioP2
2874;SDS011;1445;52.600;13.328;2023-02-27T00:02:15;4.13;;;2.63;;
2874;SDS011;1445;52.600;13.328;2023-02-27T00:04:40;3.28;;;2.33;;
2874;SDS011;1445;52.600;13.328;2023-02-27T00:07:06;3.85;;;2.10;;
2874;SDS011;1445;52.600;13.328;2023-02-27T00:09:32;5.85;;;2.85;;
2874;SDS011;1445;52.600;13.328;2023-02-27T00:11:58;3.80;;;2.13;;
2874;SDS011;1445;52.600;13.328;2023-02-27T00:14:23;4.38;;;2.28;;
2874;SDS011;1445;52.600;13.328;2023-02-27T00:16:49;6.63;;;2.30;;
2874;SDS011;1445;52.600;13.328;2023-02-27T00:19:14;5.00;;;2.40;;
2874;SDS011;1445;52.600;13.328;2023-02-27T00:21:40;3.65;;;2.60;;
2874;SDS011;1445;52.600;13.328;2023-02-27T00:24:05;3.92;;;2.30;;
2874;SDS011;1445;52.600;13.328;2023-02-27T00:26:31;3.55;;;2.40;;
2874;SDS011;1445;52.600;13.328;2023-02-27T00:28:57;5.18;;;2.22;;
2874;SDS011;1445;52.600;13.328;2023-02-27T00:31:22;3.42;;;2.03;;
2874;SDS011;1445;52.600;13.328;2023-02-27T00:33:47;4.38;;;2.10;;
2874;SDS011;1445;52.600;13.328;2023-02-27T00:36:13;4.13;;;2.75;;
2874;SDS011;1445;52.600;13.328;2023-02-27T00:38:38;4.15;;;2.00;;
2874;SDS011;1445;52.600;13.328;2023-02-27T00:41:04;4.50;;;2.15;;
2874;SDS011;1445;52.600;13.328;2023-02-27T00:43:29;4.40;;;2.40;;
2874;SDS011;1445;52.600;13.328;2023-02-27T00:45:54;3.70;;;2.45;;
2874;SDS011;1445;52.600;13.328;2023-02-27T00:48:20;2.70;;;2.20;;
2874;SDS011;1445;52.600;13.328;2023-02-27T00:50:45;3.15;;;2.28;;
2874;SDS011;1445;52.600;13.328;2023-02-27T00:53:11;6.75;;;2.90;;
2874;SDS011;1445;52.600;13.328;2023-02-27T00:55:37;4.35;;;2.17;;
2874;SDS011;1445;52.600;13.328;2023-02-27T00:58:02;3.95;;;2.47;;
2874;SDS011;1445;52.600;13.328;2023-02-27T01:00:27;3.75;;;2.50;;
2874;SDS011;1445;52.600;13.328;2023-02-27T01:02:53;4.07;;;2.83;;
2874;SDS011;1445;52.600;13.328;2023-02-27T01:05:18;3.58;;;2.33;;
2874;SDS011;1445;52.600;13.328;2023-02-27T01:07:44;5.43;;;2.20;;
2874;SDS011;1445;52.600;13.328;2023-02-27T01:10:10;3.42;;;2.13;;
2874;SDS011;1445;52.600;13.328;2023-02-27T01:12:36;3.75;;;2.33;;
2874;SDS011;1445;52.600;13.328;2023-02-27T01:15:02;3.95;;;2.30;;
2874;SDS011;1445;52.600;13.328;2023-02-27T01:17:29;3.67;;;2.30;;
2874;SDS011;1445;52.600;13.328;2023-02-27T01:19:54;4.28;;;2.35;;
2874;SDS011;1445;52.600;13.328;2023-02-27T01:22:20;5.45;;;2.72;;
2874;SDS011;1445;52.600;13.328;2023-02-27T01:24:48;4.40;;;2.80;;
2874;SDS011;1445;52.600;13.328;2023-02-27T01:27:14;4.57;;;2.95;;
2874;SDS011;1445;52.600;13.328;2023-02-27T01:29:39;7.65;;;2.97;;
2874;SDS011;1445;52.600;13.328;2023-02-27T01:32:04;6.05;;;2.85;;
2874;SDS011;1445;52.600;13.328;2023-02-27T01:34:30;4.85;;;2.60;;
2874;SDS011;1445;52.600;13.328;2023-02-27T01:36:55;5.68;;;3.10;;
2874;SDS011;1445;52.600;13.328;2023-02-27T01:39:21;4.68;;;2.72;;
2874;SDS011;1445;52.600;13.328;2023-02-27T01:41:46;4.63;;;2.50;;
2874;SDS011;1445;52.600;13.328;2023-02-27T01:44:13;5.28;;;2.80;;
2874;SDS011;1445;52.600;13.328;2023-02-27T01:46:38;5.10;;;3.58;;
2874;SDS011;1445;52.600;13.328;2023-02-27T01:49:07;5.40;;;2.83;;
2874;SDS011;1445;52.600;13.328;2023-02-27T01:51:39;5.90;;;2.90;;
2874;SDS011;1445;52.600;13.328;2023-02-27T01:54:10;6.10;;;3.13;;
2874;SDS011;1445;52.600;13.328;2023-02-27T01:56:39;6.15;;;2.63;;
2874;SDS011;1445;52.600;13.328;2023-02-27T01:59:07;5.85;;;2.83;;
2874;SDS011;1445;52.600;13.328;2023-02-27T02:01:35;4.45;;;2.97;;
2874;SDS011;1445;52.600;13.328;2023-02-27T02:04:10;4.60;;;3.10;;
2874;SDS011;1445;52.600;13.328;2023-02-27T02:06:37;7.15;;;3.40;;
2874;SDS011;1445;52.600;13.328;2023-02-27T02:09:05;5.22;;;3.38;;
2874;SDS011;1445;52.600;13.328;2023-02-27T02:11:32;6.78;;;3.30;;
2874;SDS011;1445;52.600;13.328;2023-02-27T02:13:59;6.55;;;3.92;;
2874;SDS011;1445;52.600;13.328;2023-02-27T02:16:36;6.10;;;3.72;;
2874;SDS011;1445;52.600;13.328;2023-02-27T02:40:52;3.78;;;2.42;;
2874;SDS011;1445;52.600;13.328;2023-02-27T02:57:08;6.60;;;2.90;;
2874;SDS011;1445;52.600;13.328;2023-02-27T03:04:41;4.13;;;2.70;;
2874;SDS011;1445;52.600;13.328;2023-02-27T03:07:13;5.90;;;2.67;;
2874;SDS011;1445;52.600;13.328;2023-02-27T03:10:30;3.92;;;2.53;;
2874;SDS011;1445;52.600;13.328;2023-02-27T03:12:55;5.25;;;2.83;;
2874;SDS011;1445;52.600;13.328;2023-02-27T03:15:37;4.90;;;2.75;;
2874;SDS011;1445;52.600;13.328;2023-02-27T03:18:11;3.78;;;2.58;;
2874;SDS011;1445;52.600;13.328;2023-02-27T03:20:50;6.32;;;2.72;;
2874;SDS011;1445;52.600;13.328;2023-02-27T03:23:30;4.20;;;2.45;;
2874;SDS011;1445;52.600;13.328;2023-02-27T03:26:01;6.30;;;3.30;;
2874;SDS011;1445;52.600;13.328;2023-02-27T03:28:30;4.68;;;3.03;;
2874;SDS011;1445;52.600;13.328;2023-02-27T03:31:02;5.22;;;2.40;;
2874;SDS011;1445;52.600;13.328;2023-02-27T03:33:35;4.40;;;2.70;;
2874;SDS011;1445;52.600;13.328;2023-02-27T03:36:28;6.18;;;2.50;;
2874;SDS011;1445;52.600;13.328;2023-02-27T03:39:10;4.35;;;2.70;;
2874;SDS011;1445;52.600;13.328;2023-02-27T03:44:23;6.65;;;2.60;;
2874;SDS011;1445;52.600;13.328;2023-02-27T03:46:55;5.80;;;2.85;;
2874;SDS011;1445;52.600;13.328;2023-02-27T03:49:21;7.50;;;3.05;;
2874;SDS011;1445;52.600;13.328;2023-02-27T03:51:46;4.25;;;2.67;;
2874;SDS011;1445;52.600;13.328;2023-02-27T03:54:16;4.05;;;2.85;;
2874;SDS011;1445;52.600;13.328;2023-02-27T03:59:14;5.03;;;2.60;;
2874;SDS011;1445;52.600;13.328;2023-02-27T04:01:40;4.40;;;2.78;;
2874;SDS011;1445;52.600;13.328;2023-02-27T04:04:07;4.25;;;2.92;;
2874;SDS011;1445;52.600;13.328;2023-02-27T04:06:39;4.13;;;2.53;;
2874;SDS011;1445;52.600;13.328;2023-02-27T04:18:17;5.15;;;2.60;;
2874;SDS011;1445;52.600;13.328;2023-02-27T04:23:30;6.35;;;3.08;;
2874;SDS011;1445;52.600;13.328;2023-02-27T04:39:29;5.35;;;2.72;;
2874;SDS011;1445;52.600;13.328;2023-02-27T04:42:05;4.78;;;2.63;;
2874;SDS011;1445;52.600;13.328;2023-02-27T04:44:35;4.30;;;2.80;;
2874;SDS011;1445;52.600;13.328;2023-02-27T04:47:04;7.18;;;2.90;;
2874;SDS011;1445;52.600;13.328;2023-02-27T04:49:37;4.80;;;2.88;;
2874;SDS011;1445;52.600;13.328;2023-02-27T04:52:28;4.50;;;2.40;;
2874;SDS011;1445;52.600;13.328;2023-02-27T04:55:04;4.90;;;3.05;;
2874;SDS011;1445;52.600;13.328;2023-02-27T04:57:47;4.65;;;2.83;;
2874;SDS011;1445;52.600;13.328;2023-02-27T05:00:36;4.40;;;2.65;;
2874;SDS011;1445;52.600;13.328;2023-02-27T05:03:10;4.75;;;3.00;;
2874;SDS011;1445;52.600;13.328;2023-02-27T05:05:40;4.20;;;2.90;;
2874;SDS011;1445;52.600;13.328;2023-02-27T05:11:00;5.13;;;2.78;;
2874;SDS011;1445;52.600;13.328;2023-02-27T05:13:53;4.35;;;2.95;;
2874;SDS011;1445;52.600;13.328;2023-02-27T05:16:22;4.45;;;3.10;;
2874;SDS011;1445;52.600;13.328;2023-02-27T05:18:53;6.45;;;3.33;;
2874;SDS011;1445;52.600;13.328;2023-02-27T05:24:26;4.50;;;2.90;;
2874;SDS011;1445;52.600;13.328;2023-02-27T05:29:57;4.95;;;2.58;;
2874;SDS011;1445;52.600;13.328;2023-02-27T05:37:43;4.40;;;2.58;;
2874;SDS011;1445;52.600;13.328;2023-02-27T05:40:09;4.20;;;3.10;;
2874;SDS011;1445;52.600;13.328;2023-02-27T05:42:41;4.30;;;3.00;;
2874;SDS011;1445;52.600;13.328;2023-02-27T05:45:12;4.70;;;2.90;;
2874;SDS011;1445;52.600;13.328;2023-02-27T05:47:45;4.22;;;2.50;;
2874;SDS011;1445;52.600;13.328;2023-02-27T05:50:21;4.35;;;2.90;;
2874;SDS011;1445;52.600;13.328;2023-02-27T05:52:50;6.22;;;3.45;;
2874;SDS011;1445;52.600;13.328;2023-02-27T05:55:26;6.43;;;2.67;;
2874;SDS011;1445;52.600;13.328;2023-02-27T05:58:02;4.93;;;2.83;;
2874;SDS011;1445;52.600;13.328;2023-02-27T06:00:30;4.75;;;2.60;;
2874;SDS011;1445;52.600;13.328;2023-02-27T06:03:01;4.33;;;2.53;;
2874;SDS011;1445;52.600;13.328;2023-02-27T06:05:27;5.15;;;2.97;;
2874;SDS011;1445;52.600;13.328;2023-02-27T06:07:53;5.65;;;2.70;;
2874;SDS011;1445;52.600;13.328;2023-02-27T06:10:19;4.78;;;2.85;;
2874;SDS011;1445;52.600;13.328;2023-02-27T06:12:45;4.97;;;2.80;;
2874;SDS011;1445;52.600;13.328;2023-02-27T06:15:11;4.90;;;2.90;;
2874;SDS011;1445;52.600;13.328;2023-02-27T06:17:37;4.47;;;2.67;;
2874;SDS011;1445;52.600;13.328;2023-02-27T06:20:03;6.07;;;2.85;;
2874;SDS011;1445;52.600;13.328;2023-02-27T06:22:31;6.13;;;3.30;;
2874;SDS011;1445;52.600;13.328;2023-02-27T06:24:57;6.22;;;3.28;;
2874;SDS011;1445;52.600;13.328;2023-02-27T06:27:23;5.93;;;3.28;;
2874;SDS011;1445;52.600;13.328;2023-02-27T06:29:50;5.90;;;3.35;;
2874;SDS011;1445;52.600;13.328;2023-02-27T06:32:16;5.90;;;2.80;;
2874;SDS011;1445;52.600;13.328;2023-02-27T06:34:42;7.78;;;2.72;;
2874;SDS011;1445;52.600;13.328;2023-02-27T06:37:07;11.68;;;3.50;;
2874;SDS011;1445;52.600;13.328;2023-02-27T06:39:32;10.38;;;4.10;;
2874;SDS011;1445;52.600;13.328;2023-02-27T06:41:58;18.15;;;3.92;;
2874;SDS011;1445;52.600;13.328;2023-02-27T06:44:23;15.32;;;4.45;;
2874;SDS011;1445;52.600;13.328;2023-02-27T06:46:48;13.68;;;3.88;;
2874;SDS011;1445;52.600;13.328;2023-02-27T06:49:14;6.40;;;3.40;;
2874;SDS011;1445;52.600;13.328;2023-02-27T06:51:39;6.57;;;3.38;;
2874;SDS011;1445;52.600;13.328;2023-02-27T06:54:05;6.00;;;3.22;;
2874;SDS011;1445;52.600;13.328;2023-02-27T06:56:30;7.70;;;3.60;;
2874;SDS011;1445;52.600;13.328;2023-02-27T06:58:55;5.72;;;3.00;;
2874;SDS011;1445;52.600;13.328;2023-02-27T07:01:21;5.80;;;3.58;;
2874;SDS011;1445;52.600;13.328;2023-02-27T07:03:48;6.45;;;3.60;;
2874;SDS011;1445;52.600;13.328;2023-02-27T07:06:14;6.03;;;3.40;;
2874;SDS011;1445;52.600;13.328;2023-02-27T07:08:39;5.50;;;3.20;;
2874;SDS011;1445;52.600;13.328;2023-02-27T07:11:04;5.22;;;3.53;;
2874;SDS011;1445;52.600;13.328;2023-02-27T07:13:30;7.95;;;4.32;;
2874;SDS011;1445;52.600;13.328;2023-02-27T07:15:55;7.40;;;3.53;;
2874;SDS011;1445;52.600;13.328;2023-02-27T07:18:21;5.40;;;3.67;;
2874;SDS011;1445;52.600;13.328;2023-02-27T07:20:50;6.22;;;3.00;;
2874;SDS011;1445;52.600;13.328;2023-02-27T07:23:16;6.45;;;3.67;;
2874;SDS011;1445;52.600;13.328;2023-02-27T07:25:42;4.68;;;2.83;;
2874;SDS011;1445;52.600;13.328;2023-02-27T07:28:08;8.60;;;3.78;;
2874;SDS011;1445;52.600;13.328;2023-02-27T07:30:33;6.63;;;3.63;;
2874;SDS011;1445;52.600;13.328;2023-02-27T07:32:59;6.15;;;3.38;;
2874;SDS011;1445;52.600;13.328;2023-02-27T07:35:24;6.85;;;4.10;;
2874;SDS011;1445;52.600;13.328;2023-02-27T07:37:50;6.25;;;3.25;;
2874;SDS011;1445;52.600;13.328;2023-02-27T07:40:15;6.53;;;3.17;;
2874;SDS011;1445;52.600;13.328;2023-02-27T07:42:41;4.45;;;3.30;;
2874;SDS011;1445;52.600;13.328;2023-02-27T07:45:07;6.38;;;3.22;;
2874;SDS011;1445;52.600;13.328;2023-02-27T07:47:33;5.88;;;3.53;;
2874;SDS011;1445;52.600;13.328;2023-02-27T07:49:59;8.00;;;3.95;;
2874;SDS011;1445;52.600;13.328;2023-02-27T07:52:24;7.28;;;4.07;;
2874;SDS011;1445;52.600;13.328;2023-02-27T07:54:50;4.97;;;3.38;;
2874;SDS011;1445;52.600;13.328;2023-02-27T07:57:15;5.43;;;3.55;;
2874;SDS011;1445;52.600;13.328;2023-02-27T07:59:40;6.35;;;3.97;;
2874;SDS011;1445;52.600;13.328;2023-02-27T08:02:06;7.18;;;4.15;;
2874;SDS011;1445;52.600;13.328;2023-02-27T08:04:31;5.60;;;3.53;;
2874;SDS011;1445;52.600;13.328;2023-02-27T08:07:00;6.95;;;3.67;;
2874;SDS011;1445;52.600;13.328;2023-02-27T08:09:25;6.20;;;3.92;;
2874;SDS011;1445;52.600;13.328;2023-02-27T08:11:51;5.50;;;3.45;;
2874;SDS011;1445;52.600;13.328;2023-02-27T08:14:16;5.55;;;3.28;;
2874;SDS011;1445;52.600;13.328;2023-02-27T08:16:41;5.88;;;3.33;;
2874;SDS011;1445;52.600;13.328;2023-02-27T08:19:07;6.55;;;3.45;;
2874;SDS011;1445;52.600;13.328;2023-02-27T08:21:32;6.90;;;3.47;;
2874;SDS011;1445;52.600;13.328;2023-02-27T08:23:57;5.05;;;3.22;;
2874;SDS011;1445;52.600;13.328;2023-02-27T08:26:23;7.97;;;3.55;;
2874;SDS011;1445;52.600;13.328;2023-02-27T08:28:49;7.43;;;3.20;;
2874;SDS011;1445;52.600;13.328;2023-02-27T08:31:15;4.30;;;3.05;;
2874;SDS011;1445;52.600;13.328;2023-02-27T08:33:40;6.15;;;3.25;;
2874;SDS011;1445;52.600;13.328;2023-02-27T08:36:06;6.38;;;3.33;;
2874;SDS011;1445;52.600;13.328;2023-02-27T08:38:32;9.32;;;3.55;;
2874;SDS011;1445;52.600;13.328;2023-02-27T08:40:57;5.82;;;3.70;;
2874;SDS011;1445;52.600;13.328;2023-02-27T08:43:22;6.53;;;3.30;;
2874;SDS011;1445;52.600;13.328;2023-02-27T08:45:51;4.35;;;3.33;;
2874;SDS011;1445;52.600;13.328;2023-02-27T08:48:17;5.30;;;3.50;;
2874;SDS011;1445;52.600;13.328;2023-02-27T08:50:43;6.68;;;4.32;;
2874;SDS011;1445;52.600;13.328;2023-02-27T08:53:09;6.45;;;3.35;;
2874;SDS011;1445;52.600;13.328;2023-02-27T08:55:35;6.15;;;3.97;;
2874;SDS011;1445;52.600;13.328;2023-02-27T08:58:01;6.78;;;3.58;;
2874;SDS011;1445;52.600;13.328;2023-02-27T09:00:26;10.18;;;3.70;;
2874;SDS011;1445;52.600;13.328;2023-02-27T09:02:56;4.97;;;3.17;;
2874;SDS011;1445;52.600;13.328;2023-02-27T09:05:21;7.28;;;3.45;;
2874;SDS011;1445;52.600;13.328;2023-02-27T09:07:47;5.63;;;3.20;;
2874;SDS011;1445;52.600;13.328;2023-02-27T09:10:12;5.55;;;3.28;;
2874;SDS011;1445;52.600;13.328;2023-02-27T09:12:41;7.13;;;3.72;;
2874;SDS011;1445;52.600;13.328;2023-02-27T09:15:07;5.82;;;3.63;;
2874;SDS011;1445;52.600;13.328;2023-02-27T09:17:33;6.68;;;3.70;;
2874;SDS011;1445;52.600;13.328;2023-02-27T09:19:58;6.47;;;3.90;;
2874;SDS011;1445;52.600;13.328;2023-02-27T09:22:23;6.75;;;3.70;;
2874;SDS011;1445;52.600;13.328;2023-02-27T09:24:49;7.35;;;4.00;;
2874;SDS011;1445;52.600;13.328;2023-02-27T09:27:14;6.63;;;3.20;;
2874;SDS011;1445;52.600;13.328;2023-02-27T09:29:40;6.78;;;3.75;;
2874;SDS011;1445;52.600;13.328;2023-02-27T09:32:05;7.25;;;3.83;;
2874;SDS011;1445;52.600;13.328;2023-02-27T09:34:31;7.88;;;3.78;;
2874;SDS011;1445;52.600;13.328;2023-02-27T09:36:58;5.45;;;3.28;;
2874;SDS011;1445;52.600;13.328;2023-02-27T09:39:24;8.68;;;4.65;;
2874;SDS011;1445;52.600;13.328;2023-02-27T09:41:52;6.05;;;3.63;;
2874;SDS011;1445;52.600;13.328;2023-02-27T09:44:31;7.65;;;3.78;;
2874;SDS011;1445;52.600;13.328;2023-02-27T09:46:57;6.28;;;3.45;;
2874;SDS011;1445;52.600;13.328;2023-02-27T09:49:23;4.70;;;3.25;;
2874;SDS011;1445;52.600;13.328;2023-02-27T09:51:55;5.80;;;3.35;;
2874;SDS011;1445;52.600;13.328;2023-02-27T09:54:21;7.72;;;3.20;;
2874;SDS011;1445;52.600;13.328;2023-02-27T09:56:49;7.05;;;3.38;;
2874;SDS011;1445;52.600;13.328;2023-02-27T09:59:33;6.15;;;3.30;;
2874;SDS011;1445;52.600;13.328;2023-02-27T10:07:41;6.68;;;3.10;;
2874;SDS011;1445;52.600;13.328;2023-02-27T10:10:29;5.97;;;3.03;;
2874;SDS011;1445;52.600;13.328;2023-02-27T10:15:42;6.47;;;3.72;;
2874;SDS011;1445;52.600;13.328;2023-02-27T10:18:17;8.05;;;3.45;;
2874;SDS011;1445;52.600;13.328;2023-02-27T10:20:50;5.05;;;3.00;;
2874;SDS011;1445;52.600;13.328;2023-02-27T10:23:32;5.13;;;3.42;;
2874;SDS011;1445;52.600;13.328;2023-02-27T10:25:58;4.85;;;3.08;;
2874;SDS011;1445;52.600;13.328;2023-02-27T10:28:25;5.57;;;3.38;;
2874;SDS011;1445;52.600;13.328;2023-02-27T10:30:55;3.63;;;2.97;;
2874;SDS011;1445;52.600;13.328;2023-02-27T10:33:37;5.13;;;3.30;;
2874;SDS011;1445;52.600;13.328;2023-02-27T10:36:04;5.78;;;2.60;;
2874;SDS011;1445;52.600;13.328;2023-02-27T10:39:17;4.80;;;2.90;;
2874;SDS011;1445;52.600;13.328;2023-02-27T10:41:27;7.40;;;3.90;;
2874;SDS011;1445;52.600;13.328;2023-02-27T10:43:55;6.00;;;3.03;;
2874;SDS011;1445;52.600;13.328;2023-02-27T10:46:29;4.28;;;2.92;;
2874;SDS011;1445;52.600;13.328;2023-02-27T10:48:59;5.13;;;2.78;;
2874;SDS011;1445;52.600;13.328;2023-02-27T10:51:30;4.18;;;2.50;;
2874;SDS011;1445;52.600;13.328;2023-02-27T10:57:05;4.45;;;2.60;;
2874;SDS011;1445;52.600;13.328;2023-02-27T10:59:32;5.68;;;2.70;;
2874;SDS011;1445;52.600;13.328;2023-02-27T11:04:33;5.07;;;2.53;;
2874;SDS011;1445;52.600;13.328;2023-02-27T11:07:03;3.33;;;2.25;;
2874;SDS011;1445;52.600;13.328;2023-02-27T11:09:31;3.67;;;1.75;;
2874;SDS011;1445;52.600;13.328;2023-02-27T11:14:49;3.47;;;1.70;;
2874;SDS011;1445;52.600;13.328;2023-02-27T11:17:28;2.97;;;1.73;;
2874;SDS011;1445;52.600;13.328;2023-02-27T11:19:56;4.30;;;1.95;;
2874;SDS011;1445;52.600;13.328;2023-02-27T11:22:25;3.40;;;1.73;;
2874;SDS011;1445;52.600;13.328;2023-02-27T11:25:09;2.58;;;1.75;;
2874;SDS011;1445;52.600;13.328;2023-02-27T11:27:46;3.17;;;1.60;;
2874;SDS011;1445;52.600;13.328;2023-02-27T11:32:56;2.35;;;1.17;;
2874;SDS011;1445;52.600;13.328;2023-02-27T11:35:31;1.90;;;1.17;;
2874;SDS011;1445;52.600;13.328;2023-02-27T11:37:59;2.03;;;1.30;;
2874;SDS011;1445;52.600;13.328;2023-02-27T11:40:29;3.70;;;1.40;;
2874;SDS011;1445;52.600;13.328;2023-02-27T11:43:04;3.97;;;1.50;;
2874;SDS011;1445;52.600;13.328;2023-02-27T11:45:39;2.00;;;1.52;;
2874;SDS011;1445;52.600;13.328;2023-02-27T11:48:10;2.10;;;1.40;;
2874;SDS011;1445;52.600;13.328;2023-02-27T11:56:26;3.28;;;1.48;;
2874;SDS011;1445;52.600;13.328;2023-02-27T11:59:00;3.03;;;1.23;;
2874;SDS011;1445;52.600;13.328;2023-02-27T12:01:36;2.88;;;1.17;;
2874;SDS011;1445;52.600;13.328;2023-02-27T12:06:46;1.00;;;0.80;;
2874;SDS011;1445;52.600;13.328;2023-02-27T12:09:43;3.03;;;0.93;;
2874;SDS011;1445;52.600;13.328;2023-02-27T12:15:16;1.40;;;0.70;;
2874;SDS011;1445;52.600;13.328;2023-02-27T12:23:34;0.98;;;0.60;;
2874;SDS011;1445;52.600;13.328;2023-02-27T12:36:23;1.17;;;0.57;;
2874;SDS011;1445;52.600;13.328;2023-02-27T12:38:48;1.05;;;0.52;;
2874;SDS011;1445;52.600;13.328;2023-02-27T12:46:57;1.00;;;0.70;;
2874;SDS011;1445;52.600;13.328;2023-02-27T12:52:46;2.10;;;0.60;;
2874;SDS011;1445;52.600;13.328;2023-02-27T12:55:45;0.63;;;0.50;;
2874;SDS011;1445;52.600;13.328;2023-02-27T13:03:48;1.00;;;0.70;;
2874;SDS011;1445;52.600;13.328;2023-02-27T13:09:13;1.95;;;0.50;;
2874;SDS011;1445;52.600;13.328;2023-02-27T13:18:18;1.70;;;0.65;;
2874;SDS011;1445;52.600;13.328;2023-02-27T13:25:22;1.10;;;0.60;;
2874;SDS011;1445;52.600;13.328;2023-02-27T13:28:07;1.08;;;0.82;;
2874;SDS011;1445;52.600;13.328;2023-02-27T13:30:41;2.13;;;0.63;;
2874;SDS011;1445;52.600;13.328;2023-02-27T13:43:44;2.97;;;0.95;;
2874;SDS011;1445;52.600;13.328;2023-02-27T13:46:24;1.45;;;0.77;;
2874;SDS011;1445;52.600;13.328;2023-02-27T14:04:35;1.60;;;0.80;;
2874;SDS011;1445;52.600;13.328;2023-02-27T14:07:11;1.83;;;0.70;;
2874;SDS011;1445;52.600;13.328;2023-02-27T14:09:43;1.00;;;0.65;;
2874;SDS011;1445;52.600;13.328;2023-02-27T14:12:28;1.70;;;0.70;;
2874;SDS011;1445;52.600;13.328;2023-02-27T14:17:54;1.33;;;0.77;;
2874;SDS011;1445;52.600;13.328;2023-02-27T14:31:56;4.80;;;2.35;;
2874;SDS011;1445;52.600;13.328;2023-02-27T14:33:58;1.33;;;0.70;;
2874;SDS011;1445;52.600;13.328;2023-02-27T14:36:31;1.25;;;0.90;;
2874;SDS011;1445;52.600;13.328;2023-02-27T14:39:00;4.38;;;1.65;;
2874;SDS011;1445;52.600;13.328;2023-02-27T14:43:56;4.30;;;1.88;;
2874;SDS011;1445;52.600;13.328;2023-02-27T14:46:25;3.00;;;1.30;;
2874;SDS011;1445;52.600;13.328;2023-02-27T14:49:06;2.25;;;0.70;;
2874;SDS011;1445;52.600;13.328;2023-02-27T14:51:43;1.92;;;0.90;;
2874;SDS011;1445;52.600;13.328;2023-02-27T14:54:15;2.17;;;0.93;;
2874;SDS011;1445;52.600;13.328;2023-02-27T14:56:55;1.65;;;0.70;;
2874;SDS011;1445;52.600;13.328;2023-02-27T14:59:26;1.55;;;0.82;;
2874;SDS011;1445;52.600;13.328;2023-02-27T15:01:54;2.50;;;1.10;;
2874;SDS011;1445;52.600;13.328;2023-02-27T15:04:21;1.30;;;0.90;;
2874;SDS011;1445;52.600;13.328;2023-02-27T15:06:50;1.70;;;1.00;;
2874;SDS011;1445;52.600;13.328;2023-02-27T15:09:39;2.35;;;1.40;;
2874;SDS011;1445;52.600;13.328;2023-02-27T15:12:16;1.25;;;0.90;;
2874;SDS011;1445;52.600;13.328;2023-02-27T15:14:45;1.50;;;0.80;;
2874;SDS011;1445;52.600;13.328;2023-02-27T15:17:15;1.50;;;0.90;;
2874;SDS011;1445;52.600;13.328;2023-02-27T15:19:47;1.33;;;0.80;;
2874;SDS011;1445;52.600;13.328;2023-02-27T15:22:16;1.13;;;0.77;;
2874;SDS011;1445;52.600;13.328;2023-02-27T15:24:46;1.75;;;0.88;;
2874;SDS011;1445;52.600;13.328;2023-02-27T15:27:13;2.42;;;1.00;;
2874;SDS011;1445;52.600;13.328;2023-02-27T15:29:42;1.83;;;0.90;;
2874;SDS011;1445;52.600;13.328;2023-02-27T15:32:54;1.48;;;0.88;;
2874;SDS011;1445;52.600;13.328;2023-02-27T15:35:27;2.33;;;1.00;;
2874;SDS011;1445;52.600;13.328;2023-02-27T15:37:54;1.35;;;0.80;;
2874;SDS011;1445;52.600;13.328;2023-02-27T15:40:21;1.70;;;1.17;;
2874;SDS011;1445;52.600;13.328;2023-02-27T15:42:53;1.75;;;0.90;;
2874;SDS011;1445;52.600;13.328;2023-02-27T15:45:20;2.80;;;0.80;;
2874;SDS011;1445;52.600;13.328;2023-02-27T15:47:49;3.70;;;1.10;;
2874;SDS011;1445;52.600;13.328;2023-02-27T15:52:48;2.40;;;1.35;;
2874;SDS011;1445;52.600;13.328;2023-02-27T15:55:16;2.25;;;1.00;;
2874;SDS011;1445;52.600;13.328;2023-02-27T15:57:48;1.92;;;0.98;;
2874;SDS011;1445;52.600;13.328;2023-02-27T16:00:17;1.65;;;1.00;;
2874;SDS011;1445;52.600;13.328;2023-02-27T16:02:45;1.77;;;1.20;;
2874;SDS011;1445;52.600;13.328;2023-02-27T16:05:21;2.40;;;1.13;;
2874;SDS011;1445;52.600;13.328;2023-02-27T16:07:50;2.85;;;1.20;;
2874;SDS011;1445;52.600;13.328;2023-02-27T16:10:18;3.08;;;2.03;;
2874;SDS011;1445;52.600;13.328;2023-02-27T16:12:45;3.03;;;1.90;;
2874;SDS011;1445;52.600;13.328;2023-02-27T16:20:37;4.28;;;1.90;;
2874;SDS011;1445;52.600;13.328;2023-02-27T16:23:25;5.80;;;2.67;;
2874;SDS011;1445;52.600;13.328;2023-02-27T16:31:25;4.07;;;1.77;;
2874;SDS011;1445;52.600;13.328;2023-02-27T16:33:54;4.28;;;2.30;;
2874;SDS011;1445;52.600;13.328;2023-02-27T16:36:22;4.00;;;2.20;;
2874;SDS011;1445;52.600;13.328;2023-02-27T16:38:50;4.63;;;2.20;;
2874;SDS011;1445;52.600;13.328;2023-02-27T16:41:16;3.20;;;2.00;;
2874;SDS011;1445;52.600;13.328;2023-02-27T16:43:43;3.30;;;2.00;;
2874;SDS011;1445;52.600;13.328;2023-02-27T16:46:11;4.18;;;1.83;;
2874;SDS011;1445;52.600;13.328;2023-02-27T16:48:43;2.43;;;1.60;;
2874;SDS011;1445;52.600;13.328;2023-02-27T16:51:12;4.13;;;1.85;;
2874;SDS011;1445;52.600;13.328;2023-02-27T16:53:41;2.60;;;1.88;;
2874;SDS011;1445;52.600;13.328;2023-02-27T16:56:10;3.25;;;1.98;;
2874;SDS011;1445;52.600;13.328;2023-02-27T16:58:37;3.85;;;1.67;;
2874;SDS011;1445;52.600;13.328;2023-02-27T17:01:03;4.63;;;2.10;;
2874;SDS011;1445;52.600;13.328;2023-02-27T17:03:28;3.42;;;1.60;;
2874;SDS011;1445;52.600;13.328;2023-02-27T17:05:54;3.22;;;1.60;;
2874;SDS011;1445;52.600;13.328;2023-02-27T17:08:21;4.18;;;1.90;;
2874;SDS011;1445;52.600;13.328;2023-02-27T17:10:48;3.25;;;2.00;;
2874;SDS011;1445;52.600;13.328;2023-02-27T17:13:13;3.80;;;1.90;;
2874;SDS011;1445;52.600;13.328;2023-02-27T17:15:39;3.33;;;2.00;;
2874;SDS011;1445;52.600;13.328;2023-02-27T17:18:04;3.05;;;2.22;;
2874;SDS011;1445;52.600;13.328;2023-02-27T17:20:30;4.03;;;2.55;;
2874;SDS011;1445;52.600;13.328;2023-02-27T17:22:55;3.75;;;2.20;;
2874;SDS011;1445;52.600;13.328;2023-02-27T17:25:21;4.13;;;2.60;;
2874;SDS011;1445;52.600;13.328;2023-02-27T17:27:47;3.80;;;2.45;;
2874;SDS011;1445;52.600;13.328;2023-02-27T17:30:14;4.32;;;2.67;;
2874;SDS011;1445;52.600;13.328;2023-02-27T17:32:39;5.97;;;3.05;;
2874;SDS011;1445;52.600;13.328;2023-02-27T17:35:05;5.50;;;2.90;;
2874;SDS011;1445;52.600;13.328;2023-02-27T17:37:31;4.93;;;3.28;;
2874;SDS011;1445;52.600;13.328;2023-02-27T17:39:56;7.75;;;4.05;;
2874;SDS011;1445;52.600;13.328;2023-02-27T17:42:22;5.18;;;3.72;;
2874;SDS011;1445;52.600;13.328;2023-02-27T17:44:49;7.65;;;4.15;;
2874;SDS011;1445;52.600;13.328;2023-02-27T17:47:15;7.30;;;4.30;;
2874;SDS011;1445;52.600;13.328;2023-02-27T17:49:41;10.43;;;4.30;;
2874;SDS011;1445;52.600;13.328;2023-02-27T17:52:07;9.23;;;6.50;;
2874;SDS011;1445;52.600;13.328;2023-02-27T17:54:33;8.38;;;5.90;;
2874;SDS011;1445;52.600;13.328;2023-02-27T17:56:59;8.27;;;5.90;;
2874;SDS011;1445;52.600;13.328;2023-02-27T17:59:25;11.50;;;6.70;;
2874;SDS011;1445;52.600;13.328;2023-02-27T18:01:50;11.20;;;6.60;;
2874;SDS011;1445;52.600;13.328;2023-02-27T18:04:16;8.38;;;5.75;;
2874;SDS011;1445;52.600;13.328;2023-02-27T18:06:41;9.45;;;6.30;;
2874;SDS011;1445;52.600;13.328;2023-02-27T18:09:08;11.93;;;7.05;;
2874;SDS011;1445;52.600;13.328;2023-02-27T18:11:34;10.43;;;6.65;;
2874;SDS011;1445;52.600;13.328;2023-02-27T18:14:02;10.55;;;6.90;;
2874;SDS011;1445;52.600;13.328;2023-02-27T18:16:28;10.95;;;7.05;;
2874;SDS011;1445;52.600;13.328;2023-02-27T18:18:54;12.35;;;7.63;;
2874;SDS011;1445;52.600;13.328;2023-02-27T18:21:20;13.88;;;7.60;;
2874;SDS011;1445;52.600;13.328;2023-02-27T18:23:47;13.40;;;7.95;;
2874;SDS011;1445;52.600;13.328;2023-02-27T18:26:15;13.63;;;7.75;;
2874;SDS011;1445;52.600;13.328;2023-02-27T18:28:45;12.15;;;7.82;;
2874;SDS011;1445;52.600;13.328;2023-02-27T18:31:23;11.30;;;7.80;;
2874;SDS011;1445;52.600;13.328;2023-02-27T18:33:50;14.05;;;8.18;;
2874;SDS011;1445;52.600;13.328;2023-02-27T18:36:16;15.80;;;8.65;;
2874;SDS011;1445;52.600;13.328;2023-02-27T18:38:43;14.00;;;9.02;;
2874;SDS011;1445;52.600;13.328;2023-02-27T18:41:09;14.40;;;8.63;;
2874;SDS011;1445;52.600;13.328;2023-02-27T18:43:37;13.23;;;8.15;;
2874;SDS011;1445;52.600;13.328;2023-02-27T18:46:04;15.77;;;8.23;;
2874;SDS011;1445;52.600;13.328;2023-02-27T18:48:30;12.68;;;8.38;;
2874;SDS011;1445;52.600;13.328;2023-02-27T18:51:00;11.77;;;8.20;;